sensor_id;sensor_type;location;lat;lon;timestamp;P1;P2;P0
49778;PMS5003;36217;60.232;24.776;2023-03-30T00:01:52;3;3;
49778;PMS5003;36217;60.232;24.776;2023-03-30T00:04:20;5;5;
49778;PMS5003;36217;60.232;24.776;2023-03-30T00:06:47;6;6;
49778;PMS5003;36217;60.232;24.776;2023-03-30T00:09:14;6;6;
49778;PMS5003;36217;60.232;24.776;2023-03-30T00:11:42;5;5;
49778;PMS5003;36217;60.232;24.776;2023-03-30T00:14:09;6;6;
49778;PMS5003;36217;60.232;24.776;2023-03-30T00:16:36;3;3;
49778;PMS5003;36217;60.232;24.776;2023-03-30T00:19:04;5;3;
49778;PMS5003;36217;60.232;24.776;2023-03-30T00:21:31;3;3;
49778;PMS5003;36217;60.232;24.776;2023-03-30T00:23:58;3;3;
49778;PMS5003;36217;60.232;24.776;2023-03-30T00:26:26;5;5;
49778;PMS5003;36217;60.232;24.776;2023-03-30T00:28:53;5;5;
49778;PMS5003;36217;60.232;24.776;2023-03-30T00:31:20;3;3;
49778;PMS5003;36217;60.232;24.776;2023-03-30T00:33:47;3;3;
49778;PMS5003;36217;60.232;24.776;2023-03-30T00:36:15;3;3;
49778;PMS5003;36217;60.232;24.776;2023-03-30T00:38:42;6;5;
49778;PMS5003;36217;60.232;24.776;2023-03-30T00:41:09;4;4;
49778;PMS5003;36217;60.232;24.776;2023-03-30T00:43:53;7;5;
49778;PMS5003;36217;60.232;24.776;2023-03-30T00:46:21;5;5;
49778;PMS5003;36217;60.232;24.776;2023-03-30T00:48:48;9;8;
49778;PMS5003;36217;60.232;24.776;2023-03-30T00:51:17;9;3;
49778;PMS5003;36217;60.232;24.776;2023-03-30T00:53:44;5;4;
49778;PMS5003;36217;60.232;24.776;2023-03-30T00:56:15;3;3;
49778;PMS5003;36217;60.232;24.776;2023-03-30T00:58:45;2;2;
49778;PMS5003;36217;60.232;24.776;2023-03-30T01:01:13;2;2;
49778;PMS5003;36217;60.232;24.776;2023-03-30T01:03:43;5;4;
49778;PMS5003;36217;60.232;24.776;2023-03-30T01:06:12;2;2;
49778;PMS5003;36217;60.232;24.776;2023-03-30T01:08:41;2;2;
49778;PMS5003;36217;60.232;24.776;2023-03-30T01:11:08;2;2;
49778;PMS5003;36217;60.232;24.776;2023-03-30T01:13:36;2;2;
49778;PMS5003;36217;60.232;24.776;2023-03-30T01:16:09;5;4;
49778;PMS5003;36217;60.232;24.776;2023-03-30T01:18:47;4;4;
49778;PMS5003;36217;60.232;24.776;2023-03-30T01:21:30;2;2;
49778;PMS5003;36217;60.232;24.776;2023-03-30T01:24:19;5;5;
49778;PMS5003;36217;60.232;24.776;2023-03-30T01:27:19;2;2;
49778;PMS5003;36217;60.232;24.776;2023-03-30T01:30:10;4;4;
49778;PMS5003;36217;60.232;24.776;2023-03-30T01:32:53;2;2;
49778;PMS5003;36217;60.232;24.776;2023-03-30T01:35:56;2;2;
49778;PMS5003;36217;60.232;24.776;2023-03-30T01:38:31;2;2;
49778;PMS5003;36217;60.232;24.776;2023-03-30T01:41:40;2;2;
49778;PMS5003;36217;60.232;24.776;2023-03-30T01:44:18;2;2;
49778;PMS5003;36217;60.232;24.776;2023-03-30T01:46:54;4;4;
49778;PMS5003;36217;60.232;24.776;2023-03-30T01:49:26;5;5;
49778;PMS5003;36217;60.232;24.776;2023-03-30T01:52:00;4;4;
49778;PMS5003;36217;60.232;24.776;2023-03-30T01:54:30;4;4;
49778;PMS5003;36217;60.232;24.776;2023-03-30T01:57:01;8;6;
49778;PMS5003;36217;60.232;24.776;2023-03-30T01:59:33;5;4;
49778;PMS5003;36217;60.232;24.776;2023-03-30T02:02:05;6;4;
49778;PMS5003;36217;60.232;24.776;2023-03-30T02:04:36;5;5;
49778;PMS5003;36217;60.232;24.776;2023-03-30T02:07:08;6;4;
49778;PMS5003;36217;60.232;24.776;2023-03-30T02:09:40;5;5;
49778;PMS5003;36217;60.232;24.776;2023-03-30T02:12:09;5;4;
49778;PMS5003;36217;60.232;24.776;2023-03-30T02:14:38;5;5;
49778;PMS5003;36217;60.232;24.776;2023-03-30T02:17:08;5;5;
49778;PMS5003;36217;60.232;24.776;2023-03-30T02:19:40;6;6;
49778;PMS5003;36217;60.232;24.776;2023-03-30T02:22:08;6;6;
49778;PMS5003;36217;60.232;24.776;2023-03-30T02:24:35;6;5;
49778;PMS5003;36217;60.232;24.776;2023-03-30T02:27:02;12;8;
49778;PMS5003;36217;60.232;24.776;2023-03-30T02:29:30;8;8;
49778;PMS5003;36217;60.232;24.776;2023-03-30T02:32:00;6;6;
49778;PMS5003;36217;60.232;24.776;2023-03-30T02:34:32;6;4;
49778;PMS5003;36217;60.232;24.776;2023-03-30T02:37:15;6;6;
49778;PMS5003;36217;60.232;24.776;2023-03-30T02:39:56;6;6;
49778;PMS5003;36217;60.232;24.776;2023-03-30T02:42:39;5;5;
49778;PMS5003;36217;60.232;24.776;2023-03-30T02:45:19;6;5;
49778;PMS5003;36217;60.232;24.776;2023-03-30T02:47:59;5;5;
49778;PMS5003;36217;60.232;24.776;2023-03-30T02:50:39;9;6;
49778;PMS5003;36217;60.232;24.776;2023-03-30T02:53:13;8;8;
49778;PMS5003;36217;60.232;24.776;2023-03-30T02:55:47;5;5;
49778;PMS5003;36217;60.232;24.776;2023-03-30T02:58:25;5;5;
49778;PMS5003;36217;60.232;24.776;2023-03-30T03:01:01;10;8;
49778;PMS5003;36217;60.232;24.776;2023-03-30T03:03:31;9;8;
49778;PMS5003;36217;60.232;24.776;2023-03-30T03:06:00;5;5;
49778;PMS5003;36217;60.232;24.776;2023-03-30T03:08:31;8;5;
49778;PMS5003;36217;60.232;24.776;2023-03-30T03:11:00;5;5;
49778;PMS5003;36217;60.232;24.776;2023-03-30T03:13:28;6;6;
49778;PMS5003;36217;60.232;24.776;2023-03-30T03:15:55;4;4;
49778;PMS5003;36217;60.232;24.776;2023-03-30T03:18:23;5;2;
49778;PMS5003;36217;60.232;24.776;2023-03-30T03:20:50;12;9;
49778;PMS5003;36217;60.232;24.776;2023-03-30T03:23:17;8;8;
49778;PMS5003;36217;60.232;24.776;2023-03-30T03:25:45;5;5;
49778;PMS5003;36217;60.232;24.776;2023-03-30T03:28:12;5;5;
49778;PMS5003;36217;60.232;24.776;2023-03-30T03:30:40;8;5;
49778;PMS5003;36217;60.232;24.776;2023-03-30T03:33:07;6;4;
49778;PMS5003;36217;60.232;24.776;2023-03-30T03:35:35;8;6;
49778;PMS5003;36217;60.232;24.776;2023-03-30T03:38:02;5;5;
49778;PMS5003;36217;60.232;24.776;2023-03-30T03:40:30;8;6;
49778;PMS5003;36217;60.232;24.776;2023-03-30T03:42:57;8;8;
49778;PMS5003;36217;60.232;24.776;2023-03-30T03:45:24;5;4;
49778;PMS5003;36217;60.232;24.776;2023-03-30T03:47:52;9;6;
49778;PMS5003;36217;60.232;24.776;2023-03-30T03:50:19;8;8;
49778;PMS5003;36217;60.232;24.776;2023-03-30T03:52:46;6;6;
49778;PMS5003;36217;60.232;24.776;2023-03-30T03:55:14;6;5;
49778;PMS5003;36217;60.232;24.776;2023-03-30T03:57:41;6;6;
49778;PMS5003;36217;60.232;24.776;2023-03-30T04:00:08;5;5;
49778;PMS5003;36217;60.232;24.776;2023-03-30T04:02:36;5;5;
49778;PMS5003;36217;60.232;24.776;2023-03-30T04:05:03;15;12;
49778;PMS5003;36217;60.232;24.776;2023-03-30T04:07:31;5;5;
49778;PMS5003;36217;60.232;24.776;2023-03-30T04:09:58;5;5;
49778;PMS5003;36217;60.232;24.776;2023-03-30T04:12:27;5;5;
49778;PMS5003;36217;60.232;24.776;2023-03-30T04:14:54;12;9;
49778;PMS5003;36217;60.232;24.776;2023-03-30T04:17:21;12;12;
49778;PMS5003;36217;60.232;24.776;2023-03-30T04:19:49;35;32;
49778;PMS5003;36217;60.232;24.776;2023-03-30T04:22:16;38;30;
49778;PMS5003;36217;60.232;24.776;2023-03-30T04:24:43;30;27;
49778;PMS5003;36217;60.232;24.776;2023-03-30T04:27:11;29;26;
49778;PMS5003;36217;60.232;24.776;2023-03-30T04:29:38;17;17;
49778;PMS5003;36217;60.232;24.776;2023-03-30T04:32:05;21;17;
49778;PMS5003;36217;60.232;24.776;2023-03-30T04:34:32;10;10;
49778;PMS5003;36217;60.232;24.776;2023-03-30T04:36:59;12;8;
49778;PMS5003;36217;60.232;24.776;2023-03-30T04:39:26;10;9;
49778;PMS5003;36217;60.232;24.776;2023-03-30T04:41:54;12;8;
49778;PMS5003;36217;60.232;24.776;2023-03-30T04:44:21;13;10;
49778;PMS5003;36217;60.232;24.776;2023-03-30T04:46:48;12;9;
49778;PMS5003;36217;60.232;24.776;2023-03-30T04:49:16;10;6;
49778;PMS5003;36217;60.232;24.776;2023-03-30T04:51:43;12;9;
49778;PMS5003;36217;60.232;24.776;2023-03-30T04:54:10;8;8;
49778;PMS5003;36217;60.232;24.776;2023-03-30T04:56:37;6;5;
49778;PMS5003;36217;60.232;24.776;2023-03-30T04:59:05;12;10;
49778;PMS5003;36217;60.232;24.776;2023-03-30T05:01:32;9;8;
49778;PMS5003;36217;60.232;24.776;2023-03-30T05:03:59;10;10;
49778;PMS5003;36217;60.232;24.776;2023-03-30T05:06:27;10;6;
49778;PMS5003;36217;60.232;24.776;2023-03-30T05:08:54;6;6;
49778;PMS5003;36217;60.232;24.776;2023-03-30T05:11:21;11;9;
49778;PMS5003;36217;60.232;24.776;2023-03-30T05:13:49;9;6;
49778;PMS5003;36217;60.232;24.776;2023-03-30T05:16:17;9;6;
49778;PMS5003;36217;60.232;24.776;2023-03-30T05:18:44;11;10;
49778;PMS5003;36217;60.232;24.776;2023-03-30T05:21:11;10;9;
49778;PMS5003;36217;60.232;24.776;2023-03-30T05:23:38;7;7;
49778;PMS5003;36217;60.232;24.776;2023-03-30T05:26:06;5;5;
49778;PMS5003;36217;60.232;24.776;2023-03-30T05:28:33;5;3;
49778;PMS5003;36217;60.232;24.776;2023-03-30T05:31:00;6;5;
49778;PMS5003;36217;60.232;24.776;2023-03-30T05:33:28;5;5;
49778;PMS5003;36217;60.232;24.776;2023-03-30T05:35:55;5;3;
49778;PMS5003;36217;60.232;24.776;2023-03-30T05:38:22;6;6;
49778;PMS5003;36217;60.232;24.776;2023-03-30T05:40:50;7;6;
49778;PMS5003;36217;60.232;24.776;2023-03-30T05:43:18;6;6;
49778;PMS5003;36217;60.232;24.776;2023-03-30T05:45:45;7;6;
49778;PMS5003;36217;60.232;24.776;2023-03-30T05:48:12;7;7;
49778;PMS5003;36217;60.232;24.776;2023-03-30T05:50:39;5;5;
49778;PMS5003;36217;60.232;24.776;2023-03-30T05:53:07;9;7;
49778;PMS5003;36217;60.232;24.776;2023-03-30T05:55:34;10;6;
49778;PMS5003;36217;60.232;24.776;2023-03-30T05:58:01;9;6;
49778;PMS5003;36217;60.232;24.776;2023-03-30T06:00:28;6;6;
49778;PMS5003;36217;60.232;24.776;2023-03-30T06:02:56;10;10;
49778;PMS5003;36217;60.232;24.776;2023-03-30T06:05:23;5;5;
49778;PMS5003;36217;60.232;24.776;2023-03-30T06:07:50;8;8;
49778;PMS5003;36217;60.232;24.776;2023-03-30T06:10:17;6;6;
49778;PMS5003;36217;60.232;24.776;2023-03-30T06:12:45;12;7;
49778;PMS5003;36217;60.232;24.776;2023-03-30T06:15:12;7;7;
49778;PMS5003;36217;60.232;24.776;2023-03-30T06:17:39;7;7;
49778;PMS5003;36217;60.232;24.776;2023-03-30T06:20:07;10;7;
49778;PMS5003;36217;60.232;24.776;2023-03-30T06:22:35;10;8;
49778;PMS5003;36217;60.232;24.776;2023-03-30T06:25:01;10;7;
49778;PMS5003;36217;60.232;24.776;2023-03-30T06:27:29;8;7;
49778;PMS5003;36217;60.232;24.776;2023-03-30T06:29:56;11;8;
49778;PMS5003;36217;60.232;24.776;2023-03-30T06:32:23;6;6;
49778;PMS5003;36217;60.232;24.776;2023-03-30T06:34:51;10;7;
49778;PMS5003;36217;60.232;24.776;2023-03-30T06:37:18;5;5;
49778;PMS5003;36217;60.232;24.776;2023-03-30T06:39:45;6;6;
49778;PMS5003;36217;60.232;24.776;2023-03-30T06:42:12;8;8;
49778;PMS5003;36217;60.232;24.776;2023-03-30T06:44:39;10;8;
49778;PMS5003;36217;60.232;24.776;2023-03-30T06:47:06;7;7;
49778;PMS5003;36217;60.232;24.776;2023-03-30T06:49:34;6;6;
49778;PMS5003;36217;60.232;24.776;2023-03-30T06:52:01;6;5;
49778;PMS5003;36217;60.232;24.776;2023-03-30T06:54:28;5;5;
49778;PMS5003;36217;60.232;24.776;2023-03-30T06:56:55;5;3;
49778;PMS5003;36217;60.232;24.776;2023-03-30T06:59:22;5;3;
49778;PMS5003;36217;60.232;24.776;2023-03-30T07:01:50;6;5;
49778;PMS5003;36217;60.232;24.776;2023-03-30T07:04:17;5;5;
49778;PMS5003;36217;60.232;24.776;2023-03-30T07:06:44;6;5;
49778;PMS5003;36217;60.232;24.776;2023-03-30T07:09:11;6;6;
49778;PMS5003;36217;60.232;24.776;2023-03-30T07:11:39;5;5;
49778;PMS5003;36217;60.232;24.776;2023-03-30T07:14:06;6;6;
49778;PMS5003;36217;60.232;24.776;2023-03-30T07:16:33;2;2;
49778;PMS5003;36217;60.232;24.776;2023-03-30T07:19:00;8;6;
49778;PMS5003;36217;60.232;24.776;2023-03-30T07:21:27;3;2;
49778;PMS5003;36217;60.232;24.776;2023-03-30T07:23:55;6;3;
49778;PMS5003;36217;60.232;24.776;2023-03-30T07:26:22;4;4;
49778;PMS5003;36217;60.232;24.776;2023-03-30T07:28:49;6;6;
49778;PMS5003;36217;60.232;24.776;2023-03-30T07:31:16;4;4;
49778;PMS5003;36217;60.232;24.776;2023-03-30T07:33:43;7;4;
49778;PMS5003;36217;60.232;24.776;2023-03-30T07:36:11;4;4;
49778;PMS5003;36217;60.232;24.776;2023-03-30T07:38:38;3;3;
49778;PMS5003;36217;60.232;24.776;2023-03-30T07:41:05;4;2;
49778;PMS5003;36217;60.232;24.776;2023-03-30T07:43:33;4;3;
49778;PMS5003;36217;60.232;24.776;2023-03-30T07:46:00;2;2;
49778;PMS5003;36217;60.232;24.776;2023-03-30T07:48:27;3;2;
49778;PMS5003;36217;60.232;24.776;2023-03-30T07:50:58;7;3;
49778;PMS5003;36217;60.232;24.776;2023-03-30T07:53:26;7;4;
49778;PMS5003;36217;60.232;24.776;2023-03-30T07:55:53;4;4;
49778;PMS5003;36217;60.232;24.776;2023-03-30T07:58:20;4;4;
49778;PMS5003;36217;60.232;24.776;2023-03-30T08:00:47;4;3;
49778;PMS5003;36217;60.232;24.776;2023-03-30T08:03:15;4;3;
49778;PMS5003;36217;60.232;24.776;2023-03-30T08:05:41;4;4;
49778;PMS5003;36217;60.232;24.776;2023-03-30T08:08:08;4;3;
49778;PMS5003;36217;60.232;24.776;2023-03-30T08:10:35;3;2;
49778;PMS5003;36217;60.232;24.776;2023-03-30T08:13:03;2;2;
49778;PMS5003;36217;60.232;24.776;2023-03-30T08:15:30;2;2;
49778;PMS5003;36217;60.232;24.776;2023-03-30T08:17:57;2;2;
49778;PMS5003;36217;60.232;24.776;2023-03-30T08:20:24;7;2;
49778;PMS5003;36217;60.232;24.776;2023-03-30T08:22:51;4;4;
49778;PMS5003;36217;60.232;24.776;2023-03-30T08:25:18;7;3;
49778;PMS5003;36217;60.232;24.776;2023-03-30T08:27:46;4;2;
49778;PMS5003;36217;60.232;24.776;2023-03-30T08:30:13;2;2;
49778;PMS5003;36217;60.232;24.776;2023-03-30T08:32:41;2;2;
49778;PMS5003;36217;60.232;24.776;2023-03-30T08:35:08;6;2;
49778;PMS5003;36217;60.232;24.776;2023-03-30T08:37:35;3;3;
49778;PMS5003;36217;60.232;24.776;2023-03-30T08:40:03;2;2;
49778;PMS5003;36217;60.232;24.776;2023-03-30T08:42:34;9;7;
49778;PMS5003;36217;60.232;24.776;2023-03-30T08:45:13;6;3;
49778;PMS5003;36217;60.232;24.776;2023-03-30T08:47:41;3;3;
49778;PMS5003;36217;60.232;24.776;2023-03-30T08:50:24;8;4;
49778;PMS5003;36217;60.232;24.776;2023-03-30T08:52:56;4;4;
49778;PMS5003;36217;60.232;24.776;2023-03-30T08:55:25;4;4;
49778;PMS5003;36217;60.232;24.776;2023-03-30T08:57:58;7;7;
49778;PMS5003;36217;60.232;24.776;2023-03-30T09:00:31;8;6;
49778;PMS5003;36217;60.232;24.776;2023-03-30T09:03:09;7;4;
49778;PMS5003;36217;60.232;24.776;2023-03-30T09:05:45;6;3;
49778;PMS5003;36217;60.232;24.776;2023-03-30T09:08:18;4;4;
49778;PMS5003;36217;60.232;24.776;2023-03-30T09:10:50;8;4;
49778;PMS5003;36217;60.232;24.776;2023-03-30T09:13:19;8;6;
49778;PMS5003;36217;60.232;24.776;2023-03-30T09:15:50;6;6;
49778;PMS5003;36217;60.232;24.776;2023-03-30T09:18:21;4;4;
49778;PMS5003;36217;60.232;24.776;2023-03-30T09:20:54;4;4;
49778;PMS5003;36217;60.232;24.776;2023-03-30T09:23:24;8;8;
49778;PMS5003;36217;60.232;24.776;2023-03-30T09:25:54;7;4;
49778;PMS5003;36217;60.232;24.776;2023-03-30T09:28:31;6;6;
49778;PMS5003;36217;60.232;24.776;2023-03-30T09:31:01;3;3;
49778;PMS5003;36217;60.232;24.776;2023-03-30T09:33:33;6;4;
49778;PMS5003;36217;60.232;24.776;2023-03-30T09:36:09;8;6;
49778;PMS5003;36217;60.232;24.776;2023-03-30T09:38:40;3;3;
49778;PMS5003;36217;60.232;24.776;2023-03-30T09:41:11;6;6;
49778;PMS5003;36217;60.232;24.776;2023-03-30T09:43:47;4;4;
49778;PMS5003;36217;60.232;24.776;2023-03-30T09:46:15;4;4;
49778;PMS5003;36217;60.232;24.776;2023-03-30T09:48:42;4;4;
49778;PMS5003;36217;60.232;24.776;2023-03-30T09:51:19;5;3;
49778;PMS5003;36217;60.232;24.776;2023-03-30T09:53:49;3;3;
49778;PMS5003;36217;60.232;24.776;2023-03-30T09:56:20;3;3;
49778;PMS5003;36217;60.232;24.776;2023-03-30T09:58:52;4;4;
49778;PMS5003;36217;60.232;24.776;2023-03-30T10:01:19;5;4;
49778;PMS5003;36217;60.232;24.776;2023-03-30T10:04:03;2;2;
49778;PMS5003;36217;60.232;24.776;2023-03-30T10:06:33;3;3;
49778;PMS5003;36217;60.232;24.776;2023-03-30T10:09:03;3;3;
49778;PMS5003;36217;60.232;24.776;2023-03-30T10:11:36;3;3;
49778;PMS5003;36217;60.232;24.776;2023-03-30T10:14:09;5;3;
49778;PMS5003;36217;60.232;24.776;2023-03-30T10:16:48;4;2;
49778;PMS5003;36217;60.232;24.776;2023-03-30T10:19:16;2;2;
49778;PMS5003;36217;60.232;24.776;2023-03-30T10:21:45;1;1;
49778;PMS5003;36217;60.232;24.776;2023-03-30T10:24:18;2;2;
49778;PMS5003;36217;60.232;24.776;2023-03-30T10:26:49;2;2;
49778;PMS5003;36217;60.232;24.776;2023-03-30T10:29:17;2;2;
49778;PMS5003;36217;60.232;24.776;2023-03-30T10:31:47;5;4;
49778;PMS5003;36217;60.232;24.776;2023-03-30T10:34:19;2;2;
49778;PMS5003;36217;60.232;24.776;2023-03-30T10:36:53;3;3;
49778;PMS5003;36217;60.232;24.776;2023-03-30T10:39:21;0;0;
49778;PMS5003;36217;60.232;24.776;2023-03-30T10:41:53;3;3;
49778;PMS5003;36217;60.232;24.776;2023-03-30T10:44:24;3;3;
49778;PMS5003;36217;60.232;24.776;2023-03-30T10:46:59;3;3;
49778;PMS5003;36217;60.232;24.776;2023-03-30T10:49:38;4;3;
49778;PMS5003;36217;60.232;24.776;2023-03-30T10:52:14;1;1;
49778;PMS5003;36217;60.232;24.776;2023-03-30T10:54:48;2;2;
49778;PMS5003;36217;60.232;24.776;2023-03-30T10:57:20;2;2;
49778;PMS5003;36217;60.232;24.776;2023-03-30T10:59:56;4;4;
49778;PMS5003;36217;60.232;24.776;2023-03-30T11:02:38;2;2;
49778;PMS5003;36217;60.232;24.776;2023-03-30T11:05:15;2;2;
49778;PMS5003;36217;60.232;24.776;2023-03-30T11:07:46;2;2;
49778;PMS5003;36217;60.232;24.776;2023-03-30T11:10:19;2;2;
49778;PMS5003;36217;60.232;24.776;2023-03-30T11:12:50;3;3;
49778;PMS5003;36217;60.232;24.776;2023-03-30T11:15:25;3;2;
49778;PMS5003;36217;60.232;24.776;2023-03-30T11:17:58;4;3;
49778;PMS5003;36217;60.232;24.776;2023-03-30T11:20:30;5;3;
49778;PMS5003;36217;60.232;24.776;2023-03-30T11:23:04;2;2;
49778;PMS5003;36217;60.232;24.776;2023-03-30T11:25:38;3;2;
49778;PMS5003;36217;60.232;24.776;2023-03-30T11:28:14;3;3;
49778;PMS5003;36217;60.232;24.776;2023-03-30T11:30:48;2;2;
49778;PMS5003;36217;60.232;24.776;2023-03-30T11:33:22;3;3;
49778;PMS5003;36217;60.232;24.776;2023-03-30T11:35:54;4;4;
49778;PMS5003;36217;60.232;24.776;2023-03-30T11:38:28;2;2;
49778;PMS5003;36217;60.232;24.776;2023-03-30T11:41:08;2;2;
49778;PMS5003;36217;60.232;24.776;2023-03-30T11:43:38;3;3;
49778;PMS5003;36217;60.232;24.776;2023-03-30T11:46:07;2;2;
49778;PMS5003;36217;60.232;24.776;2023-03-30T11:48:53;3;2;
49778;PMS5003;36217;60.232;24.776;2023-03-30T11:51:34;3;3;
49778;PMS5003;36217;60.232;24.776;2023-03-30T11:54:16;2;2;
49778;PMS5003;36217;60.232;24.776;2023-03-30T11:56:55;2;2;
49778;PMS5003;36217;60.232;24.776;2023-03-30T11:59:30;3;3;
49778;PMS5003;36217;60.232;24.776;2023-03-30T12:02:18;5;4;
49778;PMS5003;36217;60.232;24.776;2023-03-30T12:04:55;3;3;
49778;PMS5003;36217;60.232;24.776;2023-03-30T12:07:30;3;3;
49778;PMS5003;36217;60.232;24.776;2023-03-30T12:10:04;2;2;
49778;PMS5003;36217;60.232;24.776;2023-03-30T12:12:38;3;3;
49778;PMS5003;36217;60.232;24.776;2023-03-30T12:15:11;4;4;
49778;PMS5003;36217;60.232;24.776;2023-03-30T12:17:50;4;2;
49778;PMS5003;36217;60.232;24.776;2023-03-30T12:20:23;4;3;
49778;PMS5003;36217;60.232;24.776;2023-03-30T12:22:59;4;3;
49778;PMS5003;36217;60.232;24.776;2023-03-30T12:25:46;7;5;
49778;PMS5003;36217;60.232;24.776;2023-03-30T12:28:39;4;4;
49778;PMS5003;36217;60.232;24.776;2023-03-30T12:31:22;4;4;
49778;PMS5003;36217;60.232;24.776;2023-03-30T12:34:12;4;4;
49778;PMS5003;36217;60.232;24.776;2023-03-30T12:36:39;3;3;
49778;PMS5003;36217;60.232;24.776;2023-03-30T12:39:10;4;4;
49778;PMS5003;36217;60.232;24.776;2023-03-30T12:41:45;3;3;
49778;PMS5003;36217;60.232;24.776;2023-03-30T12:44:20;4;4;
49778;PMS5003;36217;60.232;24.776;2023-03-30T12:47:03;3;3;
49778;PMS5003;36217;60.232;24.776;2023-03-30T12:49:44;4;3;
49778;PMS5003;36217;60.232;24.776;2023-03-30T12:52:26;3;3;
49778;PMS5003;36217;60.232;24.776;2023-03-30T12:55:22;7;7;
49778;PMS5003;36217;60.232;24.776;2023-03-30T12:58:03;3;3;
49778;PMS5003;36217;60.232;24.776;2023-03-30T13:00:49;4;4;
49778;PMS5003;36217;60.232;24.776;2023-03-30T13:03:32;3;3;
49778;PMS5003;36217;60.232;24.776;2023-03-30T13:06:05;2;2;
49778;PMS5003;36217;60.232;24.776;2023-03-30T13:08:39;7;4;
49778;PMS5003;36217;60.232;24.776;2023-03-30T13:11:09;3;3;
49778;PMS5003;36217;60.232;24.776;2023-03-30T13:13:55;4;4;
49778;PMS5003;36217;60.232;24.776;2023-03-30T13:17:30;3;3;
49778;PMS5003;36217;60.232;24.776;2023-03-30T13:20:27;4;4;
49778;PMS5003;36217;60.232;24.776;2023-03-30T13:22:59;3;3;
49778;PMS5003;36217;60.232;24.776;2023-03-30T13:25:38;3;3;
49778;PMS5003;36217;60.232;24.776;2023-03-30T13:28:29;4;4;
49778;PMS5003;36217;60.232;24.776;2023-03-30T13:31:01;4;4;
49778;PMS5003;36217;60.232;24.776;2023-03-30T13:33:36;4;4;
49778;PMS5003;36217;60.232;24.776;2023-03-30T13:36:08;4;3;
49778;PMS5003;36217;60.232;24.776;2023-03-30T13:38:56;2;2;
49778;PMS5003;36217;60.232;24.776;2023-03-30T13:41:35;3;3;
49778;PMS5003;36217;60.232;24.776;2023-03-30T13:44:17;3;3;
49778;PMS5003;36217;60.232;24.776;2023-03-30T13:46:57;4;4;
49778;PMS5003;36217;60.232;24.776;2023-03-30T13:49:35;3;3;
49778;PMS5003;36217;60.232;24.776;2023-03-30T13:52:12;3;3;
49778;PMS5003;36217;60.232;24.776;2023-03-30T13:54:43;3;3;
49778;PMS5003;36217;60.232;24.776;2023-03-30T13:57:11;2;2;
49778;PMS5003;36217;60.232;24.776;2023-03-30T13:59:43;4;3;
49778;PMS5003;36217;60.232;24.776;2023-03-30T14:02:17;3;3;
49778;PMS5003;36217;60.232;24.776;2023-03-30T14:04:46;5;3;
49778;PMS5003;36217;60.232;24.776;2023-03-30T14:07:14;2;2;
49778;PMS5003;36217;60.232;24.776;2023-03-30T14:09:42;3;3;
49778;PMS5003;36217;60.232;24.776;2023-03-30T14:12:46;4;4;
49778;PMS5003;36217;60.232;24.776;2023-03-30T14:15:18;4;4;
49778;PMS5003;36217;60.232;24.776;2023-03-30T14:17:49;4;4;
49778;PMS5003;36217;60.232;24.776;2023-03-30T14:20:25;7;5;
49778;PMS5003;36217;60.232;24.776;2023-03-30T14:23:03;7;4;
49778;PMS5003;36217;60.232;24.776;2023-03-30T14:25:32;3;3;
49778;PMS5003;36217;60.232;24.776;2023-03-30T14:28:06;3;3;
49778;PMS5003;36217;60.232;24.776;2023-03-30T14:30:46;3;3;
49778;PMS5003;36217;60.232;24.776;2023-03-30T14:33:15;3;3;
49778;PMS5003;36217;60.232;24.776;2023-03-30T14:35:43;3;3;
49778;PMS5003;36217;60.232;24.776;2023-03-30T14:38:13;2;2;
49778;PMS5003;36217;60.232;24.776;2023-03-30T14:40:43;3;3;
49778;PMS5003;36217;60.232;24.776;2023-03-30T14:43:12;2;2;
49778;PMS5003;36217;60.232;24.776;2023-03-30T14:45:41;2;2;
49778;PMS5003;36217;60.232;24.776;2023-03-30T14:48:21;3;3;
49778;PMS5003;36217;60.232;24.776;2023-03-30T14:50:52;4;3;
49778;PMS5003;36217;60.232;24.776;2023-03-30T14:53:21;2;2;
49778;PMS5003;36217;60.232;24.776;2023-03-30T14:55:50;4;3;
49778;PMS5003;36217;60.232;24.776;2023-03-30T14:58:18;2;2;
49778;PMS5003;36217;60.232;24.776;2023-03-30T15:00:45;3;3;
49778;PMS5003;36217;60.232;24.776;2023-03-30T15:03:12;4;3;
49778;PMS5003;36217;60.232;24.776;2023-03-30T15:05:39;4;3;
49778;PMS5003;36217;60.232;24.776;2023-03-30T15:08:12;3;3;
49778;PMS5003;36217;60.232;24.776;2023-03-30T15:10:48;4;3;
49778;PMS5003;36217;60.232;24.776;2023-03-30T15:13:19;3;3;
49778;PMS5003;36217;60.232;24.776;2023-03-30T15:15:51;4;4;
49778;PMS5003;36217;60.232;24.776;2023-03-30T15:18:22;5;5;
49778;PMS5003;36217;60.232;24.776;2023-03-30T15:20:52;3;3;
49778;PMS5003;36217;60.232;24.776;2023-03-30T15:23:20;3;3;
49778;PMS5003;36217;60.232;24.776;2023-03-30T15:25:48;5;4;
49778;PMS5003;36217;60.232;24.776;2023-03-30T15:28:17;4;4;
49778;PMS5003;36217;60.232;24.776;2023-03-30T15:30:45;3;1;
49778;PMS5003;36217;60.232;24.776;2023-03-30T15:33:19;3;3;
49778;PMS5003;36217;60.232;24.776;2023-03-30T15:35:48;4;4;
49778;PMS5003;36217;60.232;24.776;2023-03-30T15:38:16;4;3;
49778;PMS5003;36217;60.232;24.776;2023-03-30T15:40:44;4;3;
49778;PMS5003;36217;60.232;24.776;2023-03-30T15:43:13;4;4;
49778;PMS5003;36217;60.232;24.776;2023-03-30T15:45:45;3;2;
49778;PMS5003;36217;60.232;24.776;2023-03-30T15:48:17;4;3;
49778;PMS5003;36217;60.232;24.776;2023-03-30T15:50:48;4;4;
49778;PMS5003;36217;60.232;24.776;2023-03-30T15:53:19;3;2;
49778;PMS5003;36217;60.232;24.776;2023-03-30T15:55:57;4;4;
49778;PMS5003;36217;60.232;24.776;2023-03-30T15:58:35;3;3;
49778;PMS5003;36217;60.232;24.776;2023-03-30T16:01:03;4;4;
49778;PMS5003;36217;60.232;24.776;2023-03-30T16:03:31;2;2;
49778;PMS5003;36217;60.232;24.776;2023-03-30T16:06:01;5;3;
49778;PMS5003;36217;60.232;24.776;2023-03-30T16:08:29;4;4;
49778;PMS5003;36217;60.232;24.776;2023-03-30T16:10:56;3;3;
49778;PMS5003;36217;60.232;24.776;2023-03-30T16:13:35;2;2;
49778;PMS5003;36217;60.232;24.776;2023-03-30T16:16:06;2;2;
49778;PMS5003;36217;60.232;24.776;2023-03-30T16:18:33;4;3;
49778;PMS5003;36217;60.232;24.776;2023-03-30T16:21:00;3;3;
49778;PMS5003;36217;60.232;24.776;2023-03-30T16:23:27;3;3;
49778;PMS5003;36217;60.232;24.776;2023-03-30T16:25:54;4;2;
49778;PMS5003;36217;60.232;24.776;2023-03-30T16:28:21;4;4;
49778;PMS5003;36217;60.232;24.776;2023-03-30T16:30:50;4;4;
49778;PMS5003;36217;60.232;24.776;2023-03-30T16:33:18;4;3;
49778;PMS5003;36217;60.232;24.776;2023-03-30T16:35:45;3;3;
49778;PMS5003;36217;60.232;24.776;2023-03-30T16:38:13;3;3;
49778;PMS5003;36217;60.232;24.776;2023-03-30T16:40:42;2;2;
49778;PMS5003;36217;60.232;24.776;2023-03-30T16:43:10;3;3;
49778;PMS5003;36217;60.232;24.776;2023-03-30T16:45:38;3;3;
49778;PMS5003;36217;60.232;24.776;2023-03-30T16:48:05;4;4;
49778;PMS5003;36217;60.232;24.776;2023-03-30T16:50:35;4;4;
49778;PMS5003;36217;60.232;24.776;2023-03-30T16:53:04;4;3;
49778;PMS5003;36217;60.232;24.776;2023-03-30T16:55:42;3;3;
49778;PMS5003;36217;60.232;24.776;2023-03-30T16:58:10;4;4;
49778;PMS5003;36217;60.232;24.776;2023-03-30T17:00:39;3;3;